Meekatharra, Australia
Current Conditions -  °F | °C
As of 12:00 AM on Friday 31 Oct 2014 (Local Time) from YMEK Reporting Station
Clear Clear  
Wind Chill: 77°   Ceiling: Unl
Heat Index: 79°   Visibility: 6mi
Dew Point: 70°   Wind: 12mph
Humidity: 78%   Direction: 200°SSW
Pressure: 29.88"   Gusts: NA
Location:  26.59°S, 118.5°E
Report Text: YMEK 301600Z AUTO 20010KT 9999 // NCD 25/21 Q1012
Loading
Personal Weather Stations






























Interactive Weather Map
Tropical Storm Tracking
New forecast layout! Learn more

10-Day Weather Forecast

Advertisements
Track Severe Weather on mobile